Airfield :
LOGIN :

Register | Disclaimer

   EN    FR    IT 

 










Legend :    VFR   Marginal VFR   IFR   Intensive IFR   Very Intensive IFR
Visi :
Ceiling :
>= 8 km
>= 3000ft
5 to 8 km
1000 to 3000 ft
1500m to 5 km
500 to 1000 ft
800 to 1500m
200 to 500 ft
< 800m
< 200 ft
Symbols :   Thunderstorms  Fog  Heavy snow  Heavy precipitations  Wind > 20 kt
SIGMETs :     Misc.  Thunderstorms  Icing  Turbulence  Mountain Waves  Volcanic Ashes






- Airport Elevation : 125 ft
- IATA code : MGL


EDLN - Mönchengladbach

CURRENT METAR :
  • 230250Z AUTO 03003KT 9999 // FEW065/// SCT100/// BKN120/// 11/10 Q1020

EXPIRED METARs :
  • 230220Z AUTO 03003KT 9999 // BKN100/// OVC120/// 11/10 Q1020
  • 230150Z AUTO 02002KT 9999 // OVC100/// 11/10 Q1020
  • 230120Z AUTO 04003KT 9999 // OVC098/// 11/11 Q1020
  • 230050Z AUTO 00000KT 8000 // SCT084/// OVC098/// 10/10 Q1021
  • 230020Z AUTO VRB02KT 5000 // BKN098/// OVC120/// 10/10 Q1021
  • 222350Z AUTO 00000KT 6000 // BKN090/// 10/10 Q1022

Expired Forecast.



MET'MAP, your aeronautical weather chart ! - Copyright ORBIFLY December 2007 - Disclaimer

ORBIFLY MET'MAP TEAM :

Programming & Development : Alexandra Zaïnal
Concept & Development : Baudouin d'Aumeries
Co-Development & Prog : Marc-Olivier Méhu
Technical & hardware support : Manuel Goepfert

Contact : metmap@orbifly.com




SOURCES & CREDITS :

   NOAA